Time;durP1;ratioP1;P1;durP2;ratioP2;P2;SDS_P1;SDS_P2;PMS_P1;PMS_P2;Temp;Humidity;BMP_temperature;BMP_pressure;BME280_temperature;BME280_humidity;BME280_pressure;Samples;Min_cycle;Max_cycle;Signal;HPM_P1;HPM_P2
2022/11/24 00:02:44;;;;;;;7.25;3.42;;;;;;;7.71;93.75;99269.84;10469744;28;20052;-69
2022/11/24 00:07:46;;;;;;;4.90;2.67;;;;;;;7.66;94.16;99272.06;10485545;28;20047;-70
2022/11/24 00:12:47;;;;;;;6.45;2.72;;;;;;;7.68;94.74;99271.94;10504553;28;20051;-69
2022/11/24 00:17:48;;;;;;;8.05;3.35;;;;;;;7.77;94.17;99274.63;10510363;28;20060;-71
2022/11/24 00:22:49;;;;;;;7.80;3.08;;;;;;;7.82;93.61;99284.00;10480096;28;20048;-68
2022/11/24 00:27:51;;;;;;;10.35;3.53;;;;;;;7.95;92.75;99279.34;10474757;28;20049;-71
2022/11/24 00:32:54;;;;;;;6.20;2.60;;;;;;;7.94;92.83;99282.97;10498266;28;20052;-71
2022/11/24 00:37:55;;;;;;;8.00;3.20;;;;;;;7.84;93.46;99290.03;10520610;28;20036;-71
2022/11/24 00:42:56;;;;;;;9.13;3.20;;;;;;;7.89;94.01;99293.13;10494558;28;20048;-69
2022/11/24 00:47:58;;;;;;;5.68;2.97;;;;;;;7.89;93.80;99304.53;10481497;28;20051;-71
2022/11/24 00:52:59;;;;;;;6.82;3.17;;;;;;;7.84;93.86;99316.53;10476445;28;20051;-71
2022/11/24 00:58:00;;;;;;;7.28;2.55;;;;;;;7.70;95.00;99321.16;10475888;28;20048;-69
2022/11/24 01:03:02;;;;;;;9.18;2.83;;;;;;;7.73;95.20;99326.22;10475179;28;20044;-71
2022/11/24 01:08:04;;;;;;;6.07;3.17;;;;;;;7.73;94.98;99334.16;10482328;28;20058;-69
2022/11/24 01:13:05;;;;;;;9.40;3.72;;;;;;;7.76;95.17;99347.16;10479347;28;20068;-71
2022/11/24 01:18:06;;;;;;;7.88;3.17;;;;;;;7.84;94.62;99348.31;10516140;28;20055;-71
2022/11/24 01:23:08;;;;;;;5.32;3.03;;;;;;;7.87;94.42;99348.06;10502032;28;20264;-71
2022/11/24 01:28:09;;;;;;;9.13;3.05;;;;;;;7.84;94.77;99348.31;10481886;28;20058;-69
2022/11/24 01:33:10;;;;;;;7.95;3.58;;;;;;;7.83;94.90;99357.22;10479927;28;20900;-69
2022/11/24 01:38:12;;;;;;;7.32;2.85;;;;;;;7.85;94.44;99357.94;10471804;28;20466;-70
2022/11/24 01:43:19;;;;;;;6.28;2.80;;;;;;;7.83;94.59;99370.47;10459199;28;20458;-70
2022/11/24 01:48:29;;;;;;;8.55;3.10;;;;;;;7.87;94.72;99367.44;10459801;28;20050;-69
2022/11/24 01:53:30;;;;;;;9.93;3.17;;;;;;;7.82;94.82;99366.13;10475417;28;20399;-71
2022/11/24 01:58:34;;;;;;;7.80;3.40;;;;;;;7.88;95.15;99378.88;10470987;28;20779;-70
2022/11/24 02:03:38;;;;;;;7.20;3.83;;;;;;;7.88;95.63;99370.91;10457479;28;20060;-71
2022/11/24 02:08:46;;;;;;;16.67;4.22;;;;;;;7.87;95.22;99385.16;10465045;28;20056;-68
2022/11/24 02:13:50;;;;;;;11.63;3.42;;;;;;;7.99;94.84;99393.88;10462344;28;20749;-70
2022/11/24 02:18:52;;;;;;;10.90;3.90;;;;;;;8.05;94.46;99391.56;10472037;28;20051;-69
2022/11/24 02:24:05;;;;;;;8.82;3.30;;;;;;;8.08;94.14;99393.97;10473195;28;20044;-69
2022/11/24 02:29:08;;;;;;;10.18;2.90;;;;;;;8.21;93.51;99404.38;10473582;28;20044;-71
2022/11/24 02:34:09;;;;;;;9.50;3.22;;;;;;;8.06;93.91;99392.41;10467761;28;20048;-69
2022/11/24 02:39:12;;;;;;;7.75;2.85;;;;;;;8.06;94.62;99390.59;10470681;28;20060;-69
2022/11/24 02:44:16;;;;;;;8.38;3.13;;;;;;;8.07;94.37;99391.44;10475043;28;20044;-71
2022/11/24 02:49:17;;;;;;;13.23;3.13;;;;;;;8.12;94.91;99390.09;10471611;28;20198;-71
2022/11/24 02:54:19;;;;;;;8.30;3.15;;;;;;;8.22;93.96;99373.41;10498630;28;20048;-72
2022/11/24 02:59:20;;;;;;;12.27;3.70;;;;;;;8.23;93.59;99380.41;10513484;28;20048;-72
2022/11/24 03:04:22;;;;;;;7.15;3.20;;;;;;;8.18;93.58;99396.69;10464166;28;20047;-70
2022/11/24 03:09:23;;;;;;;7.50;2.60;;;;;;;8.20;93.65;99401.88;10472307;28;20059;-71
2022/11/24 03:14:24;;;;;;;7.30;3.20;;;;;;;8.18;93.44;99403.78;10464003;28;20052;-70
2022/11/24 03:19:25;;;;;;;9.85;3.35;;;;;;;8.06;93.85;99406.50;10470143;28;20655;-69
2022/11/24 03:24:27;;;;;;;12.00;3.13;;;;;;;8.01;93.87;99399.91;10478271;28;20052;-69
2022/11/24 03:29:28;;;;;;;8.68;3.38;;;;;;;8.02;93.94;99409.53;10498208;28;20054;-72
2022/11/24 03:34:30;;;;;;;8.25;3.30;;;;;;;7.99;94.35;99412.41;10529058;28;20052;-72
2022/11/24 03:39:32;;;;;;;10.00;3.00;;;;;;;8.08;94.14;99415.16;10516849;28;20040;-69
2022/11/24 03:44:33;;;;;;;12.40;3.75;;;;;;;8.22;93.49;99411.34;10483666;28;20051;-70
2022/11/24 03:49:35;;;;;;;9.90;3.17;;;;;;;8.30;92.69;99405.38;10485069;28;20060;-71
2022/11/24 03:54:36;;;;;;;12.05;3.55;;;;;;;8.25;92.83;99400.47;10480580;28;20434;-71
2022/11/24 03:59:38;;;;;;;11.57;4.05;;;;;;;8.14;93.27;99396.09;10478616;28;20051;-69
2022/11/24 04:04:39;;;;;;;11.40;4.13;;;;;;;8.09;93.43;99422.16;10462715;28;20063;-72
2022/11/24 04:09:40;;;;;;;8.48;3.83;;;;;;;8.05;93.64;99425.19;10476817;28;20052;-70
2022/11/24 04:14:42;;;;;;;13.80;3.50;;;;;;;8.04;93.73;99423.50;10468179;28;20059;-70
2022/11/24 04:19:43;;;;;;;10.63;4.00;;;;;;;8.10;93.19;99422.97;10478766;28;20098;-72
2022/11/24 04:24:44;;;;;;;13.73;4.30;;;;;;;8.16;92.41;99437.53;10470208;28;20056;-70
2022/11/24 04:29:45;;;;;;;13.40;3.75;;;;;;;8.01;92.93;99434.34;10485393;28;20068;-71
2022/11/24 04:34:47;;;;;;;9.18;3.45;;;;;;;7.99;93.89;99441.56;10473308;28;20268;-71
2022/11/24 04:39:48;;;;;;;11.68;3.50;;;;;;;7.97;94.03;99449.66;10485908;28;20506;-71
2022/11/24 04:44:49;;;;;;;13.75;4.68;;;;;;;7.97;94.32;99452.31;10479183;28;20563;-71
2022/11/24 04:49:51;;;;;;;9.20;3.40;;;;;;;8.05;94.11;99452.53;10476679;28;20137;-71
2022/11/24 04:54:52;;;;;;;11.35;3.50;;;;;;;8.09;93.90;99461.91;10475795;28;20044;-71
2022/11/24 04:59:54;;;;;;;13.40;3.80;;;;;;;8.16;93.79;99467.53;10473394;28;20146;-69
2022/11/24 05:04:55;;;;;;;11.05;3.38;;;;;;;8.15;93.76;99468.50;10473880;28;20067;-71
2022/11/24 05:15:16;;;;;;;11.05;3.67;;;;;;;8.31;93.71;99486.63;10473138;28;20048;-71
2022/11/24 05:20:18;;;;;;;10.10;3.10;;;;;;;8.34;93.60;99491.69;10472465;28;20418;-72
2022/11/24 05:25:20;;;;;;;16.25;3.92;;;;;;;8.40;93.16;99488.50;10459501;28;20070;-69
2022/11/24 05:30:21;;;;;;;11.32;3.65;;;;;;;8.41;93.51;99487.56;10463765;28;20423;-71
2022/11/24 05:35:23;;;;;;;9.68;3.55;;;;;;;8.45;93.33;99496.97;10470528;28;20048;-73
2022/11/24 05:40:24;;;;;;;10.27;3.58;;;;;;;8.48;93.07;99499.38;10470952;28;20028;-73
2022/11/24 05:45:26;;;;;;;15.88;3.88;;;;;;;8.55;92.86;99501.50;10508312;28;22457;-71
2022/11/24 05:50:27;;;;;;;11.57;3.60;;;;;;;8.61;92.73;99506.28;10460752;28;20051;-70
2022/11/24 05:55:28;;;;;;;15.85;4.07;;;;;;;8.71;92.17;99523.13;10500616;28;20059;-74
2022/11/24 06:00:32;;;;;;;13.07;4.15;;;;;;;8.77;91.84;99511.16;10512402;28;20059;-74
2022/11/24 06:05:33;;;;;;;10.27;3.50;;;;;;;8.76;91.88;99520.91;10496444;28;20142;-73
2022/11/24 06:10:34;;;;;;;11.02;3.72;;;;;;;8.84;91.14;99523.75;10450742;28;20048;-70
2022/11/24 06:15:36;;;;;;;13.88;4.78;;;;;;;8.87;91.14;99519.16;10462354;28;20102;-70
2022/11/24 06:20:38;;;;;;;11.60;3.33;;;;;;;8.89;91.13;99526.03;10448382;28;20106;-71
2022/11/24 06:25:39;;;;;;;12.43;3.63;;;;;;;8.97;91.15;99533.34;10449533;28;20394;-73
2022/11/24 06:30:40;;;;;;;13.98;4.18;;;;;;;9.03;90.64;99540.78;10465879;28;20076;-69
2022/11/24 06:35:42;;;;;;;14.70;3.78;;;;;;;9.08;90.63;99541.19;10462631;28;20060;-69
2022/11/24 06:40:43;;;;;;;11.20;3.28;;;;;;;9.04;91.10;99547.78;10452269;28;20455;-71
2022/11/24 06:45:50;;;;;;;15.02;3.47;;;;;;;9.13;91.09;99549.63;10467757;28;20052;-71
2022/11/24 06:50:52;;;;;;;9.35;3.22;;;;;;;9.14;91.15;99546.00;10460976;28;20532;-68
2022/11/24 06:55:57;;;;;;;11.75;4.38;;;;;;;9.12;90.77;99553.25;10447330;28;20049;-71
2022/11/24 07:00:59;;;;;;;14.93;4.40;;;;;;;9.12;90.97;99558.56;10465201;28;20102;-69
2022/11/24 07:06:00;;;;;;;11.68;3.78;;;;;;;9.15;90.50;99565.44;10467527;28;20059;-72
2022/11/24 07:11:06;;;;;;;14.85;3.92;;;;;;;9.14;90.79;99566.41;10443509;28;20052;-70
2022/11/24 07:16:20;;;;;;;16.88;4.43;;;;;;;9.18;91.80;99568.66;10457882;28;20673;-70
2022/11/24 07:21:23;;;;;;;15.27;3.53;;;;;;;9.27;91.88;99582.13;10461198;28;20051;-70
2022/11/24 07:26:25;;;;;;;11.55;3.70;;;;;;;9.17;91.56;99588.22;10491146;28;20075;-71
2022/11/24 07:31:26;;;;;;;11.32;3.65;;;;;;;9.27;91.70;99582.97;10518674;28;20043;-75
2022/11/24 07:36:28;;;;;;;13.52;3.60;;;;;;;9.24;91.87;99587.72;10515490;28;20052;-70
2022/11/24 07:41:29;;;;;;;13.32;3.90;;;;;;;9.16;92.80;99596.34;10495332;28;20111;-71
2022/11/24 07:46:31;;;;;;;9.93;3.33;;;;;;;9.20;93.50;99611.00;10514726;28;20047;-68
2022/11/24 07:51:32;;;;;;;13.40;3.80;;;;;;;9.17;92.90;99616.59;10512585;28;20064;-71
2022/11/24 07:56:33;;;;;;;10.70;3.60;;;;;;;9.09;93.37;99611.09;10508387;28;20082;-70
2022/11/24 08:01:35;;;;;;;11.85;2.90;;;;;;;9.32;95.89;99617.97;10504062;28;20945;-68
2022/11/24 08:06:36;;;;;;;14.27;4.50;;;;;;;9.44;93.10;99625.84;10504606;28;20062;-69
2022/11/24 08:11:44;;;;;;;14.93;3.65;;;;;;;9.61;92.81;99633.19;10485253;28;20625;-69
2022/11/24 08:16:46;;;;;;;12.13;3.85;;;;;;;9.73;92.88;99637.44;10482624;28;20112;-69
2022/11/24 08:21:47;;;;;;;11.23;3.35;;;;;;;9.67;89.80;99637.97;10505397;28;20163;-74
2022/11/24 08:26:49;;;;;;;12.05;3.38;;;;;;;9.43;90.73;99643.59;10517637;28;20334;-73
2022/11/24 08:31:50;;;;;;;11.70;3.53;;;;;;;9.37;91.56;99642.31;10490354;28;20049;-72
2022/11/24 08:36:52;;;;;;;11.27;2.70;;;;;;;9.29;91.30;99641.25;10493026;28;20078;-71
2022/11/24 08:41:53;;;;;;;13.15;3.28;;;;;;;9.32;91.09;99659.59;10492135;28;20166;-71
2022/11/24 08:46:55;;;;;;;7.80;2.60;;;;;;;9.54;90.62;99658.59;10509754;28;20537;-70
2022/11/24 08:51:56;;;;;;;10.65;2.97;;;;;;;9.50;89.88;99658.03;10484702;28;20073;-72
2022/11/24 08:56:58;;;;;;;11.82;3.15;;;;;;;9.47;90.41;99671.59;10496047;28;20055;-72
2022/11/24 09:01:59;;;;;;;9.23;2.58;;;;;;;9.38;90.17;99672.34;10469310;28;20658;-70
2022/11/24 09:07:00;;;;;;;10.05;2.55;;;;;;;9.38;90.54;99664.38;10466613;28;20052;-71
2022/11/24 09:12:02;;;;;;;10.15;2.85;;;;;;;9.47;89.82;99674.25;10466741;28;20813;-71
2022/11/24 09:17:03;;;;;;;12.30;2.55;;;;;;;9.97;88.58;99664.69;10467346;28;20055;-72
2022/11/24 09:22:04;;;;;;;9.38;3.00;;;;;;;9.98;85.93;99682.31;10497998;28;20082;-72
2022/11/24 09:27:06;;;;;;;7.30;3.35;;;;;;;9.85;86.27;99698.50;10493790;28;20067;-70
2022/11/24 09:32:07;;;;;;;5.53;2.30;;;;;;;9.98;86.03;99700.94;10458512;28;20055;-70
2022/11/24 09:37:08;;;;;;;6.53;2.33;;;;;;;10.16;84.67;99707.28;10470904;28;20120;-70
2022/11/24 09:42:25;;;;;;;13.35;3.40;;;;;;;10.37;84.34;99698.44;10469547;28;20068;-71
2022/11/24 09:47:40;;;;;;;7.90;2.92;;;;;;;10.73;82.32;99710.31;10456560;28;20052;-70
2022/11/24 09:52:53;;;;;;;9.82;2.58;;;;;;;10.87;81.72;99717.03;10477218;28;20054;-70
2022/11/24 09:58:22;;;;;;;7.90;2.53;;;;;;;11.20;80.38;99717.63;10507615;28;20054;-71
2022/11/24 10:03:33;;;;;;;7.38;2.60;;;;;;;10.96;80.65;99718.88;10477524;28;20043;-71
2022/11/24 10:08:37;;;;;;;8.35;2.70;;;;;;;10.78;80.80;99723.19;10473976;28;20054;-69
2022/11/24 10:13:46;;;;;;;8.68;2.65;;;;;;;11.10;80.07;99732.75;10450740;28;20137;-71
2022/11/24 10:19:32;;;;;;;7.00;2.13;;;;;;;12.32;75.01;99740.94;10470994;28;20054;-69
2022/11/24 10:24:57;;;;;;;7.30;2.72;;;;;;;11.90;74.73;99741.34;10477692;28;20052;-69
2022/11/24 10:30:00;;;;;;;9.82;2.90;;;;;;;11.67;75.48;99748.84;10449110;28;20056;-70
2022/11/24 10:35:20;;;;;;;9.75;2.50;;;;;;;11.75;73.88;99756.13;10447789;28;20135;-70
2022/11/24 10:40:44;;;;;;;5.90;1.58;;;;;;;11.70;73.27;99750.41;10452030;28;20051;-70
2022/11/24 10:46:12;;;;;;;5.47;1.50;;;;;;;11.45;75.32;99771.31;10463659;28;20044;-70
2022/11/24 10:51:35;;;;;;;7.88;2.35;;;;;;;11.44;74.61;99764.28;10448901;28;20055;-70
2022/11/24 10:56:41;;;;;;;6.80;2.45;;;;;;;11.95;72.25;99759.59;10460162;28;20056;-70
2022/11/24 11:01:42;;;;;;;9.40;2.17;;;;;;;12.83;69.18;99754.72;10463821;28;20048;-70
2022/11/24 11:06:44;;;;;;;5.30;1.70;;;;;;;13.29;65.75;99765.38;10449756;28;20049;-70
2022/11/24 11:11:50;;;;;;;7.55;1.70;;;;;;;13.01;65.25;99767.28;10465957;28;20228;-70
2022/11/24 11:16:54;;;;;;;6.88;1.83;;;;;;;12.40;66.92;99774.06;10452418;28;20063;-70
2022/11/24 11:22:01;;;;;;;5.90;1.92;;;;;;;12.67;66.43;99786.59;10445565;28;20132;-70
2022/11/24 11:27:15;;;;;;;5.32;2.25;;;;;;;15.50;59.83;99777.38;10468377;28;20043;-68
2022/11/24 11:32:19;;;;;;;6.40;1.60;;;;;;;14.81;58.58;99791.81;10471643;28;20134;-71
2022/11/24 11:37:41;;;;;;;;;;;;;;;22.23;41.59;99793.09;10490696;28;20067;-70
2022/11/24 11:43:01;;;;;;;5.93;1.52;;;;;;;25.65;34.71;99788.34;10502336;28;20038;-70
2022/11/24 11:48:26;;;;;;;4.38;1.33;;;;;;;27.82;28.53;99786.31;10507327;28;20048;-69
2022/11/24 11:53:45;;;;;;;5.22;1.80;;;;;;;22.10;35.85;99790.41;10491733;28;20457;-68
2022/11/24 11:58:52;;;;;;;6.45;1.67;;;;;;;17.48;45.75;99801.75;10479206;28;20044;-68
2022/11/24 12:04:19;;;;;;;7.28;1.85;;;;;;;15.40;50.51;99801.66;10473311;28;20040;-69
2022/11/24 12:09:28;;;;;;;6.07;1.88;;;;;;;15.76;52.05;99795.97;10470666;28;21588;-69
2022/11/24 12:14:45;;;;;;;4.95;1.48;;;;;;;15.91;50.73;99804.22;10472264;28;20043;-70
2022/11/24 12:20:15;;;;;;;6.80;1.75;;;;;;;14.79;53.52;99812.56;10471038;28;20067;-71
2022/11/24 12:25:20;;;;;;;7.07;1.63;;;;;;;14.08;54.36;99817.19;10429971;28;20052;-69
2022/11/24 12:30:22;;;;;;;4.63;0.90;;;;;;;13.65;55.68;99823.38;10457055;28;20055;-70
2022/11/24 12:35:44;;;;;;;6.07;2.25;;;;;;;13.40;54.75;99823.97;10458660;28;20059;-71
2022/11/24 12:41:06;;;;;;;4.22;1.23;;;;;;;13.29;55.54;99829.53;10481665;28;20062;-70
2022/11/24 12:46:45;;;;;;;5.65;1.92;;;;;;;13.35;56.69;99823.59;10493885;28;20255;-70
2022/11/24 12:52:00;;;;;;;8.82;1.50;;;;;;;13.36;56.29;99830.63;10494609;28;20054;-69
2022/11/24 12:57:13;;;;;;;4.82;1.25;;;;;;;13.26;54.93;99837.84;10493495;28;20430;-72
2022/11/24 13:02:24;;;;;;;5.97;2.08;;;;;;;13.76;53.80;99831.97;10511370;28;20044;-70
2022/11/24 13:07:42;;;;;;;7.15;1.17;;;;;;;13.26;53.97;99835.19;10514831;28;20115;-71
2022/11/24 13:12:56;;;;;;;4.93;1.33;;;;;;;12.90;55.68;99840.47;10502824;28;20091;-73
2022/11/24 13:17:58;;;;;;;7.23;1.50;;;;;;;12.68;56.29;99839.84;10475022;28;20054;-72
2022/11/24 13:23:24;;;;;;;6.68;1.40;;;;;;;12.89;54.81;99842.28;10517049;28;20255;-70
2022/11/24 13:28:59;;;;;;;6.97;2.03;;;;;;;14.25;49.94;99849.44;10476965;28;20048;-69
2022/11/24 13:34:41;;;;;;;4.45;1.48;;;;;;;13.56;52.13;99862.59;10490750;28;20035;-72
2022/11/24 13:40:06;;;;;;;7.07;2.25;;;;;;;13.67;51.76;99870.34;10515178;28;20112;-72
2022/11/24 13:45:50;;;;;;;5.80;1.25;;;;;;;13.49;52.42;99867.69;10494357;28;20048;-69
2022/11/24 13:50:57;;;;;;;5.57;1.50;;;;;;;13.37;53.52;99869.72;10488350;28;20058;-73
2022/11/24 13:56:11;;;;;;;6.32;1.75;;;;;;;13.42;53.81;99869.28;10502194;28;20719;-70
2022/11/24 14:01:34;;;;;;;5.75;1.77;;;;;;;13.55;53.09;99874.25;10447224;28;20158;-68
2022/11/24 14:06:42;;;;;;;6.28;2.25;;;;;;;13.44;53.02;99868.13;10443372;28;20072;-69
2022/11/24 14:11:57;;;;;;;5.82;2.53;;;;;;;13.23;52.68;99860.38;10463951;28;20295;-69
2022/11/24 14:17:06;;;;;;;4.97;1.70;;;;;;;12.92;53.53;99859.84;10445205;28;20044;-69
2022/11/24 14:22:35;;;;;;;7.22;1.10;;;;;;;12.75;54.25;99855.31;10452302;28;20052;-69
2022/11/24 14:27:37;;;;;;;3.53;1.27;;;;;;;12.61;55.12;99862.81;10467931;28;20048;-69
2022/11/24 14:32:41;;;;;;;4.32;1.65;;;;;;;12.51;55.25;99870.00;10468870;28;20844;-72
2022/11/24 14:37:42;;;;;;;4.95;2.13;;;;;;;12.48;55.71;99867.63;10455496;28;20062;-68
2022/11/24 14:42:49;;;;;;;6.70;1.63;;;;;;;12.27;55.88;99876.66;10464670;28;20059;-70
2022/11/24 14:47:50;;;;;;;8.40;2.90;;;;;;;12.14;56.94;99873.44;10467580;28;20741;-69
2022/11/24 14:52:56;;;;;;;8.73;1.80;;;;;;;11.96;56.78;99871.50;10447735;28;21028;-69
2022/11/24 14:57:58;;;;;;;4.70;1.63;;;;;;;11.87;58.39;99880.31;10462964;28;20060;-68
2022/11/24 15:03:00;;;;;;;6.40;2.28;;;;;;;11.81;57.92;99880.88;10459668;28;20068;-69
2022/11/24 15:08:02;;;;;;;6.43;1.60;;;;;;;11.74;58.40;99885.09;10448190;28;20413;-69
2022/11/24 15:13:17;;;;;;;5.65;1.98;;;;;;;11.60;58.36;99884.50;10467936;28;20049;-68
2022/11/24 15:18:25;;;;;;;;;;;;;;;11.43;58.37;99896.72;10451129;28;20056;-68
2022/11/24 15:23:31;;;;;;;5.43;1.95;;;;;;;11.29;59.40;99903.28;10465854;28;19928;-68
2022/11/24 15:28:32;;;;;;;9.10;1.85;;;;;;;11.20;60.27;99901.44;10463883;28;20040;-68
2022/11/24 15:33:33;;;;;;;8.85;2.45;;;;;;;11.12;60.80;99903.91;10466215;28;20058;-68
2022/11/24 15:38:35;;;;;;;9.32;3.03;;;;;;;11.03;61.84;99907.41;10475783;28;20055;-69
2022/11/24 15:43:40;;;;;;;7.80;2.72;;;;;;;10.96;62.25;99913.28;10507067;28;20048;-68
2022/11/24 15:48:41;;;;;;;5.43;2.85;;;;;;;10.83;63.32;99925.13;10477341;28;20051;-67
2022/11/24 15:53:50;;;;;;;5.07;1.90;;;;;;;10.63;64.54;99926.84;10465327;28;20067;-68
2022/11/24 15:58:57;;;;;;;9.05;2.20;;;;;;;10.55;65.34;99936.34;10461212;28;20256;-69
2022/11/24 16:03:59;;;;;;;7.53;2.45;;;;;;;10.54;66.09;99939.97;10457708;28;20055;-68
2022/11/24 16:09:01;;;;;;;9.52;3.00;;;;;;;10.49;66.92;99944.81;10467165;28;20044;-66
2022/11/24 16:14:02;;;;;;;8.95;3.22;;;;;;;10.41;67.40;99942.81;10437984;28;20051;-68
2022/11/24 16:19:04;;;;;;;9.73;4.00;;;;;;;10.32;68.28;99946.22;10486871;28;20063;-70
2022/11/24 16:24:06;;;;;;;8.57;3.45;;;;;;;10.27;68.94;99949.28;10511154;28;20040;-69
2022/11/24 16:29:07;;;;;;;7.95;2.65;;;;;;;10.22;69.11;99961.28;10494441;28;20044;-68
2022/11/24 16:34:09;;;;;;;9.75;4.05;;;;;;;10.16;69.50;99967.94;10487594;28;20071;-71
2022/11/24 16:39:10;;;;;;;9.07;2.90;;;;;;;10.12;69.85;99969.19;10516510;28;20062;-71
2022/11/24 16:44:11;;;;;;;7.95;3.97;;;;;;;10.13;70.98;99965.53;10519501;28;20064;-73
2022/11/24 16:49:13;;;;;;;10.10;2.60;;;;;;;10.10;70.40;99968.47;10482528;28;20059;-71
2022/11/24 16:54:14;;;;;;;10.73;3.00;;;;;;;10.04;70.47;99963.66;10484220;28;20082;-70
2022/11/24 16:59:15;;;;;;;10.32;3.58;;;;;;;9.98;70.72;99969.47;10483161;28;20115;-71
2022/11/24 17:04:17;;;;;;;10.05;2.47;;;;;;;9.86;71.09;99972.19;10501478;22;20100;-62
2022/11/24 17:09:18;;;;;;;7.70;3.20;;;;;;;9.71;71.55;99946.84;10422348;28;20056;-61
2022/11/24 17:14:19;;;;;;;11.05;3.95;;;;;;;9.66;72.30;99971.16;10451959;28;20048;-62
2022/11/24 17:19:20;;;;;;;9.15;4.97;;;;;;;9.59;72.20;99969.13;10440837;28;20052;-63
2022/11/24 17:24:22;;;;;;;7.68;6.88;;;;;;;9.50;72.76;99976.88;10450406;23;20060;-62
2022/11/24 17:29:23;;;;;;;9.82;3.85;;;;;;;9.58;72.78;99976.25;10442101;28;20052;-62
2022/11/24 17:34:24;;;;;;;8.23;3.05;;;;;;;9.44;73.15;99966.72;10445467;28;20349;-61
2022/11/24 17:39:26;;;;;;;8.45;4.00;;;;;;;9.47;72.97;99990.41;10445359;28;20653;-63
2022/11/24 17:44:28;;;;;;;11.48;4.25;;;;;;;9.48;73.17;99985.94;10445128;28;20230;-61
2022/11/24 17:49:29;;;;;;;8.98;4.15;;;;;;;9.48;73.39;100005.38;10445284;28;20056;-62
2022/11/24 17:54:30;;;;;;;11.32;5.57;;;;;;;9.45;73.60;100010.09;10451605;28;20055;-63
2022/11/24 17:59:52;;;;;;;10.55;5.57;;;;;;;9.29;73.70;99994.50;10451714;28;20498;-63
2022/11/24 18:04:53;;;;;;;13.73;8.40;;;;;;;9.29;73.96;100019.28;10446228;28;20607;-63
2022/11/24 18:09:54;;;;;;;12.98;4.90;;;;;;;9.30;74.32;100026.25;10447892;28;20383;-62
2022/11/24 18:14:56;;;;;;;8.43;3.35;;;;;;;9.32;74.41;100020.81;10442686;28;20418;-63
2022/11/24 18:19:57;;;;;;;10.63;3.85;;;;;;;9.28;74.81;100008.78;10443894;28;21109;-64
2022/11/24 18:24:58;;;;;;;12.55;3.90;;;;;;;9.33;74.55;100027.84;10437771;28;21126;-64
2022/11/24 18:30:00;;;;;;;7.28;3.70;;;;;;;9.30;74.73;100028.91;10444226;28;20058;-62
2022/11/24 18:35:01;;;;;;;11.70;3.53;;;;;;;9.20;75.06;100015.53;10447099;28;20546;-62
2022/11/24 18:40:03;;;;;;;13.30;3.78;;;;;;;9.24;74.96;100017.94;10453731;28;20044;-62
2022/11/24 18:45:05;;;;;;;11.65;4.30;;;;;;;9.39;74.98;100027.34;10450793;28;20052;-62
2022/11/24 18:50:07;;;;;;;13.18;4.57;;;;;;;9.46;74.21;100015.28;10449336;28;20052;-62
2022/11/24 18:55:08;;;;;;;11.23;4.70;;;;;;;9.57;74.01;100014.41;10448391;28;20500;-61
2022/11/24 19:00:11;;;;;;;12.05;4.80;;;;;;;9.50;74.06;100014.06;10458379;28;20052;-62
2022/11/24 19:05:12;;;;;;;11.20;4.80;;;;;;;9.43;74.40;100023.50;10452322;28;20655;-62
2022/11/24 19:10:14;;;;;;;12.95;5.55;;;;;;;9.24;75.04;100008.16;10455973;28;20510;-64
2022/11/24 19:15:16;;;;;;;10.55;4.60;;;;;;;9.27;75.30;100015.03;10452764;28;20053;-62
2022/11/24 19:20:17;;;;;;;13.52;5.45;;;;;;;9.17;75.51;100015.78;10456978;28;20731;-61
2022/11/24 19:25:18;;;;;;;14.63;7.22;;;;;;;9.09;75.60;100015.50;10455573;28;20083;-62
2022/11/24 19:30:20;;;;;;;17.58;7.50;;;;;;;9.01;75.46;100007.31;10456912;28;20703;-63
2022/11/24 19:35:21;;;;;;;13.60;7.15;;;;;;;8.99;75.66;100009.22;10453825;28;20628;-65
2022/11/24 19:40:22;;;;;;;15.15;8.23;;;;;;;8.83;76.44;100021.03;10453248;28;20052;-61
2022/11/24 19:45:24;;;;;;;18.52;8.95;;;;;;;9.01;77.10;100013.47;10455473;28;20053;-64
2022/11/24 19:50:25;;;;;;;15.00;7.90;;;;;;;8.85;76.37;100019.09;10452000;28;20048;-61
2022/11/24 19:55:26;;;;;;;14.38;9.02;;;;;;;8.71;77.02;100019.34;10450695;28;20051;-63
2022/11/24 20:00:28;;;;;;;12.82;8.50;;;;;;;8.71;76.72;100011.38;10458813;28;20141;-62
2022/11/24 20:05:32;;;;;;;15.63;9.70;;;;;;;8.60;77.52;100011.34;10456116;28;20048;-61
2022/11/24 20:10:33;;;;;;;11.68;7.75;;;;;;;8.44;78.15;100014.31;10452176;28;20533;-60
2022/11/24 20:15:35;;;;;;;15.23;7.13;;;;;;;8.45;78.18;100026.59;10446664;28;20060;-62
2022/11/24 20:20:36;;;;;;;16.67;7.60;;;;;;;8.40;78.17;100015.47;10454028;28;20064;-62
2022/11/24 20:25:37;;;;;;;14.52;8.13;;;;;;;8.40;77.86;100028.72;10453507;28;20063;-63
2022/11/24 20:30:39;;;;;;;12.80;7.57;;;;;;;8.29;78.14;100029.53;10452143;28;20070;-62
2022/11/24 20:35:40;;;;;;;15.77;8.68;;;;;;;8.26;78.06;100016.50;10450883;28;20063;-66
2022/11/24 20:40:42;;;;;;;13.73;8.48;;;;;;;8.05;78.08;99993.28;10449585;28;20059;-61
2022/11/24 20:45:43;;;;;;;15.20;8.07;;;;;;;8.09;78.64;100023.91;10450619;28;20048;-62
2022/11/24 20:50:44;;;;;;;13.75;8.13;;;;;;;8.17;78.65;100035.72;10456274;28;20048;-60
2022/11/24 20:55:59;;;;;;;14.25;8.30;;;;;;;8.07;78.75;100031.09;10466151;28;20439;-66
2022/11/24 21:01:14;;;;;;;12.32;7.68;;;;;;;7.98;79.11;100021.19;10465918;28;20501;-61
2022/11/24 21:06:16;;;;;;;11.90;8.57;;;;;;;7.95;78.96;100018.75;10468665;28;20043;-60
2022/11/24 21:11:18;;;;;;;14.35;8.57;;;;;;;7.89;78.92;100021.88;10466170;28;20544;-62
2022/11/24 21:16:22;;;;;;;17.77;9.77;;;;;;;7.82;79.26;100024.13;10469468;28;20233;-62
2022/11/24 21:21:27;;;;;;;16.87;8.47;;;;;;;7.73;79.72;100036.25;10465278;28;20623;-62
2022/11/24 21:26:28;;;;;;;12.05;7.97;;;;;;;7.84;79.49;100042.56;10469563;28;20071;-63
2022/11/24 21:31:34;;;;;;;15.43;8.50;;;;;;;7.82;78.98;100044.47;10468734;28;20052;-62
2022/11/24 21:36:38;;;;;;;13.30;8.30;;;;;;;7.84;79.05;100050.53;10466460;28;20135;-64
2022/11/24 21:41:40;;;;;;;;;;;;;;;7.74;79.70;100042.38;10474863;28;20144;-63
2022/11/24 21:46:41;;;;;;;13.60;9.07;;;;;;;7.56;80.37;100044.53;10470110;28;19950;-63
2022/11/24 21:51:54;;;;;;;13.52;8.57;;;;;;;7.54;80.62;100051.75;10472223;28;20056;-65
2022/11/24 21:56:56;;;;;;;14.40;8.98;;;;;;;7.48;80.79;100050.38;10467456;28;20067;-63
2022/11/24 22:01:57;;;;;;;12.95;7.78;;;;;;;7.42;80.62;100054.31;10472490;28;20041;-63
2022/11/24 22:06:58;;;;;;;13.55;7.82;;;;;;;7.35;81.12;100046.91;10464555;28;20105;-64
2022/11/24 22:12:00;;;;;;;14.30;8.18;;;;;;;7.42;81.22;100043.72;10469938;28;20056;-65
2022/11/24 22:17:01;;;;;;;14.80;7.72;;;;;;;7.39;80.57;100046.56;10467736;28;20053;-66
2022/11/24 22:22:02;;;;;;;15.77;8.60;;;;;;;7.37;80.52;100048.50;10470202;28;20059;-63
2022/11/24 22:27:04;;;;;;;17.50;9.00;;;;;;;7.33;80.86;100048.81;10468137;28;20064;-63
2022/11/24 22:32:05;;;;;;;12.68;7.93;;;;;;;7.22;81.73;100049.56;10468081;28;20911;-63
2022/11/24 22:37:06;;;;;;;13.93;8.55;;;;;;;7.24;81.32;100055.59;10474575;28;20127;-64
2022/11/24 22:42:08;;;;;;;15.73;8.98;;;;;;;7.22;81.45;100046.91;10469305;28;20138;-67
2022/11/24 22:47:09;;;;;;;16.60;9.63;;;;;;;7.12;81.39;100035.28;10469111;28;20063;-63
2022/11/24 22:52:12;;;;;;;16.65;9.05;;;;;;;7.01;82.00;100034.22;10468727;28;20526;-62
2022/11/24 22:57:14;;;;;;;16.02;9.27;;;;;;;7.00;82.52;100039.63;10471103;28;20056;-63
2022/11/24 23:02:15;;;;;;;13.25;9.52;;;;;;;6.87;82.28;100026.38;10463549;28;20075;-64
2022/11/24 23:07:16;;;;;;;13.57;8.68;;;;;;;6.98;82.08;100038.88;10463504;28;20055;-63
2022/11/24 23:12:18;;;;;;;14.40;9.43;;;;;;;6.90;82.16;100026.16;10466433;28;20097;-63
2022/11/24 23:17:19;;;;;;;14.65;9.27;;;;;;;6.83;82.27;100035.47;10461421;28;20044;-62
2022/11/24 23:22:20;;;;;;;13.95;9.02;;;;;;;6.95;82.20;100032.00;10464907;28;20128;-62
2022/11/24 23:27:22;;;;;;;13.43;8.68;;;;;;;6.93;81.88;100044.47;10466994;28;20049;-62
2022/11/24 23:32:23;;;;;;;17.58;9.98;;;;;;;6.73;81.92;100033.47;10465792;28;20059;-63
2022/11/24 23:37:24;;;;;;;14.50;8.98;;;;;;;6.69;82.56;100033.78;10466716;28;20048;-63
2022/11/24 23:42:46;;;;;;;15.52;8.68;;;;;;;6.69;82.62;100039.06;10467321;28;20048;-63